createdAt,value
2023-04-17T00:00:01.861Z,30.63
2023-04-17T00:02:30.321Z,26.67
2023-04-17T00:04:59.576Z,28.50
2023-04-17T00:07:28.456Z,27.88
2023-04-17T00:09:56.895Z,27.38
2023-04-17T00:12:25.075Z,27.52
2023-04-17T00:14:53.435Z,28.67
2023-04-17T00:17:22.932Z,29.48
2023-04-17T00:19:51.433Z,27.95
2023-04-17T00:22:19.666Z,30.42
2023-04-17T00:24:48.055Z,29.00
2023-04-17T00:27:16.191Z,29.60
2023-04-17T00:29:44.562Z,29.85
2023-04-17T00:32:12.909Z,29.73
2023-04-17T00:34:42.783Z,29.85
2023-04-17T00:37:10.987Z,30.42
2023-04-17T00:39:39.429Z,30.05
2023-04-17T00:42:07.562Z,28.88
2023-04-17T00:44:35.968Z,30.00
2023-04-17T00:47:04.130Z,30.52
2023-04-17T00:49:32.835Z,29.83
2023-04-17T00:52:02.653Z,29.30
2023-04-17T00:54:31.688Z,31.70
2023-04-17T00:57:01.137Z,31.70
2023-04-17T00:59:29.879Z,29.60
2023-04-17T01:01:58.221Z,34.70
2023-04-17T01:04:27.401Z,37.47
2023-04-17T01:06:55.730Z,32.92
2023-04-17T01:09:25.751Z,32.47
2023-04-17T01:11:53.978Z,31.98
2023-04-17T01:14:22.452Z,32.00
2023-04-17T01:16:50.598Z,30.65
2023-04-17T01:19:19.768Z,32.05
2023-04-17T01:21:48.081Z,32.08
2023-04-17T01:24:17.906Z,33.08
2023-04-17T01:26:46.032Z,32.80
2023-04-17T01:29:14.383Z,34.13
2023-04-17T01:31:42.614Z,30.20
2023-04-17T01:34:11.011Z,32.08
2023-04-17T01:36:39.191Z,32.83
2023-04-17T01:39:07.584Z,35.45
2023-04-17T01:41:37.492Z,35.47
2023-04-17T01:44:06.246Z,32.90
2023-04-17T01:46:34.449Z,34.78
2023-04-17T01:49:03.041Z,35.63
2023-04-17T01:51:31.213Z,34.88
2023-04-17T01:53:59.655Z,38.75
2023-04-17T01:56:28.122Z,34.58
2023-04-17T01:58:57.904Z,36.10
2023-04-17T02:01:26.072Z,37.50
2023-04-17T02:03:54.991Z,35.45
2023-04-17T02:06:23.169Z,37.40
2023-04-17T02:08:51.582Z,38.20
2023-04-17T02:11:19.864Z,36.22
2023-04-17T02:13:48.332Z,37.25
2023-04-17T02:16:21.615Z,38.35
2023-04-17T02:18:51.023Z,36.05
2023-04-17T02:21:19.447Z,35.20
2023-04-17T02:23:48.002Z,36.05
2023-04-17T02:26:16.140Z,34.92
2023-04-17T02:28:45.092Z,37.75
2023-04-17T02:31:13.862Z,37.17
2023-04-17T02:33:43.623Z,37.92
2023-04-17T02:36:11.794Z,38.95
2023-04-17T02:38:40.532Z,34.53
2023-04-17T02:41:08.758Z,36.63
2023-04-17T02:43:38.057Z,34.70
2023-04-17T02:46:06.367Z,33.50
2023-04-17T02:48:34.766Z,33.72
2023-04-17T02:51:04.443Z,34.80
2023-04-17T02:53:33.062Z,34.28
2023-04-17T02:56:01.183Z,31.13
2023-04-17T02:58:29.685Z,31.55
2023-04-17T03:01:02.495Z,32.42
2023-04-17T03:03:34.767Z,29.60
2023-04-17T03:06:05.172Z,29.52
2023-04-17T03:08:35.512Z,28.23
2023-04-17T03:11:04.137Z,30.42
2023-04-17T03:13:33.802Z,29.83
2023-04-17T03:16:02.392Z,33.72
2023-04-17T03:18:30.886Z,34.15
2023-04-17T03:20:59.128Z,35.95
2023-04-17T03:23:28.885Z,34.58
2023-04-17T03:25:56.961Z,36.05
2023-04-17T03:28:25.798Z,35.83
2023-04-17T03:30:54.943Z,36.95
2023-04-17T03:33:23.351Z,34.95
2023-04-17T03:35:51.489Z,33.38
2023-04-17T03:38:19.844Z,34.53
2023-04-17T03:40:49.459Z,34.40
2023-04-17T03:43:17.849Z,33.75
2023-04-17T03:45:46.235Z,37.85
2023-04-17T03:48:14.847Z,37.63
2023-04-17T03:50:42.990Z,40.08
2023-04-17T03:53:11.618Z,40.55
2023-04-17T03:55:39.860Z,39.45
2023-04-17T03:58:09.603Z,40.70
2023-04-17T04:00:38.539Z,39.63
2023-04-17T04:03:07.209Z,39.75
2023-04-17T04:05:35.684Z,39.25
2023-04-17T04:08:04.167Z,33.90
2023-04-17T04:10:33.368Z,33.72
2023-04-17T04:13:02.318Z,35.42
2023-04-17T04:15:31.883Z,36.75
2023-04-17T04:18:00.471Z,36.90
2023-04-17T04:20:28.657Z,39.45
2023-04-17T04:22:59.235Z,38.10
2023-04-17T04:25:28.842Z,40.42
2023-04-17T04:27:57.200Z,38.22
2023-04-17T04:30:25.989Z,42.38
2023-04-17T04:32:56.028Z,43.55
2023-04-17T04:35:25.862Z,42.78
2023-04-17T04:37:54.862Z,42.20
2023-04-17T04:40:24.619Z,42.35
2023-04-17T04:42:53.001Z,44.95
2023-04-17T04:45:21.148Z,40.47
2023-04-17T04:47:49.590Z,42.85
2023-04-17T04:50:19.872Z,41.42
2023-04-17T04:52:48.390Z,42.42
2023-04-17T04:55:16.512Z,42.60
2023-04-17T04:57:44.897Z,41.95
2023-04-17T05:00:14.334Z,40.60
2023-04-17T05:02:42.932Z,42.40
2023-04-17T05:05:12.396Z,39.83
2023-04-17T05:07:42.349Z,43.35
2023-04-17T05:10:11.164Z,44.22
2023-04-17T05:12:40.833Z,44.72
2023-04-17T05:15:10.043Z,43.28
2023-04-17T05:17:39.027Z,44.00
2023-04-17T05:20:09.187Z,43.53
2023-04-17T05:22:37.964Z,42.05
2023-04-17T05:25:08.506Z,42.60
2023-04-17T05:27:37.449Z,44.45
2023-04-17T05:30:06.448Z,44.78
2023-04-17T05:32:35.540Z,44.63
2023-04-17T05:35:03.854Z,45.58
2023-04-17T05:37:32.461Z,43.33
2023-04-17T05:40:01.329Z,44.72
2023-04-17T05:42:31.065Z,43.55
2023-04-17T05:44:59.232Z,46.75
2023-04-17T05:47:28.054Z,49.35
2023-04-17T05:49:58.171Z,45.22
2023-04-17T05:52:27.020Z,48.28
2023-04-17T05:54:55.295Z,48.28
2023-04-17T05:57:23.769Z,50.65
2023-04-17T05:59:53.268Z,49.38
2023-04-17T06:02:21.772Z,46.67
2023-04-17T06:04:50.306Z,47.30
2023-04-17T06:07:19.498Z,44.92
2023-04-17T06:09:47.759Z,43.60
2023-04-17T06:12:16.853Z,38.30
2023-04-17T06:14:44.974Z,37.08
2023-04-17T06:17:14.813Z,37.80
2023-04-17T06:19:43.108Z,37.60
2023-04-17T06:22:11.854Z,35.15
2023-04-17T06:24:39.959Z,33.72
2023-04-17T06:27:08.772Z,34.42
2023-04-17T06:29:36.899Z,34.88
2023-04-17T06:32:05.635Z,36.47
2023-04-17T06:34:36.043Z,39.30
2023-04-17T06:37:06.819Z,37.47
2023-04-17T06:39:34.924Z,37.85
2023-04-17T06:42:03.584Z,36.67
2023-04-17T06:44:31.689Z,39.70
2023-04-17T06:47:03.463Z,37.88
2023-04-17T06:49:31.766Z,37.25
2023-04-17T06:52:01.728Z,37.55
2023-04-17T06:54:29.918Z,38.45
2023-04-17T06:56:58.446Z,39.95
2023-04-17T06:59:26.622Z,43.05
2023-04-17T07:01:55.065Z,41.88
2023-04-17T07:04:23.375Z,40.55
2023-04-17T07:06:52.056Z,41.05
2023-04-17T07:09:21.513Z,43.20
2023-04-17T07:11:50.093Z,43.83
2023-04-17T07:14:18.308Z,42.95
2023-04-17T07:16:46.770Z,43.38
2023-04-17T07:19:15.138Z,44.28
2023-04-17T07:21:43.549Z,39.53
2023-04-17T07:24:11.616Z,40.25
2023-04-17T07:26:43.237Z,38.65
2023-04-17T07:29:11.878Z,37.88
2023-04-17T07:31:40.421Z,35.85
2023-04-17T07:34:08.762Z,35.70
2023-04-17T07:36:37.462Z,35.38
2023-04-17T07:39:06.439Z,38.58
2023-04-17T07:41:34.879Z,38.40
2023-04-17T07:44:05.773Z,41.08
2023-04-17T07:46:34.196Z,39.90
2023-04-17T07:49:02.473Z,41.83
2023-04-17T07:51:31.460Z,38.83
2023-04-17T07:53:59.591Z,39.13
2023-04-17T07:56:28.411Z,41.13
2023-04-17T07:58:56.555Z,39.97
2023-04-17T08:01:26.468Z,39.72
2023-04-17T08:03:55.494Z,42.10
2023-04-17T08:06:24.305Z,44.22
2023-04-17T08:08:52.584Z,44.80
2023-04-17T08:11:21.254Z,44.10
2023-04-17T08:13:49.466Z,44.17
2023-04-17T08:16:17.732Z,45.90
2023-04-17T08:18:47.675Z,44.88
2023-04-17T08:21:15.806Z,46.90
2023-04-17T08:23:44.211Z,45.13
2023-04-17T08:26:12.528Z,43.22
2023-04-17T08:28:41.101Z,42.67
2023-04-17T08:31:10.392Z,42.38
2023-04-17T08:33:39.096Z,40.80
2023-04-17T08:36:10.463Z,40.80
2023-04-17T08:38:39.003Z,41.40
2023-04-17T08:41:10.122Z,43.15
2023-04-17T08:43:38.670Z,41.63
2023-04-17T08:46:07.549Z,41.92
2023-04-17T08:48:36.119Z,42.60
2023-04-17T08:51:04.492Z,40.45
2023-04-17T08:53:34.271Z,42.10
2023-04-17T08:56:08.260Z,46.25
2023-04-17T08:58:37.947Z,43.65
2023-04-17T09:01:11.182Z,42.50
2023-04-17T09:03:43.558Z,43.75
2023-04-17T09:06:12.846Z,43.65
2023-04-17T09:08:58.328Z,41.45
2023-04-17T09:11:27.066Z,44.92
2023-04-17T09:13:55.673Z,46.83
2023-04-17T09:16:25.821Z,47.17
2023-04-17T09:19:06.795Z,44.53
2023-04-17T09:21:35.154Z,43.63
2023-04-17T09:24:06.782Z,46.88
2023-04-17T09:26:35.757Z,43.80
2023-04-17T09:29:09.045Z,47.55
2023-04-17T09:31:39.172Z,44.28
2023-04-17T09:34:08.631Z,44.90
2023-04-17T09:36:38.453Z,44.90
2023-04-17T09:39:20.288Z,42.80
2023-04-17T09:41:48.606Z,45.53
2023-04-17T09:44:26.549Z,44.00
2023-04-17T09:46:55.238Z,46.30
2023-04-17T09:49:27.043Z,43.97
2023-04-17T09:51:57.014Z,44.90
2023-04-17T09:54:31.621Z,45.05
2023-04-17T09:57:02.878Z,46.50
2023-04-17T09:59:31.874Z,43.07
2023-04-17T10:02:00.265Z,42.42
2023-04-17T10:04:30.430Z,45.47
2023-04-17T10:06:58.597Z,44.95
2023-04-17T10:09:28.338Z,41.70
2023-04-17T10:11:57.825Z,43.95
2023-04-17T10:14:27.595Z,43.08
2023-04-17T10:16:55.862Z,42.90
2023-04-17T10:19:29.580Z,43.85
2023-04-17T10:22:32.955Z,43.13
2023-04-17T10:25:22.474Z,43.05
2023-04-17T10:27:52.139Z,43.72
2023-04-17T10:30:22.527Z,44.22
2023-04-17T10:33:28.605Z,40.20
2023-04-17T10:35:57.297Z,40.72
2023-04-17T10:38:36.262Z,41.33
2023-04-17T10:41:11.084Z,39.20
2023-04-17T10:43:43.485Z,39.00
2023-04-17T10:46:13.298Z,36.90
2023-04-17T10:48:49.585Z,39.15
2023-04-17T10:51:52.532Z,40.33
2023-04-17T10:54:20.884Z,38.10
2023-04-17T10:56:55.823Z,38.67
2023-04-17T10:59:30.040Z,40.35
2023-04-17T11:02:01.534Z,37.60
2023-04-17T11:04:31.550Z,34.28
2023-04-17T11:07:01.229Z,33.75
2023-04-17T11:09:30.314Z,36.35
2023-04-17T11:12:03.036Z,33.85
2023-04-17T11:14:31.373Z,32.10
2023-04-17T11:16:59.893Z,25.55
2023-04-17T11:19:28.216Z,23.92
2023-04-17T11:21:58.681Z,26.02
2023-04-17T11:24:28.230Z,26.77
2023-04-17T11:26:57.836Z,27.88
2023-04-17T11:29:28.267Z,31.75
2023-04-17T11:31:58.201Z,26.63
2023-04-17T11:34:27.823Z,23.70
2023-04-17T11:36:57.746Z,25.08
2023-04-17T11:39:29.035Z,22.90
2023-04-17T11:41:57.956Z,18.88
2023-04-17T11:44:27.784Z,19.80
2023-04-17T11:46:59.349Z,20.65
2023-04-17T11:49:28.222Z,22.20
2023-04-17T11:51:59.625Z,18.73
2023-04-17T11:54:28.444Z,16.92
2023-04-17T11:57:01.323Z,15.25
2023-04-17T11:59:34.709Z,14.55
2023-04-17T12:02:03.754Z,15.95
2023-04-17T12:04:34.203Z,18.30
2023-04-17T12:07:03.691Z,17.55
2023-04-17T12:09:32.532Z,19.83
2023-04-17T12:12:02.616Z,19.17
2023-04-17T12:14:31.443Z,20.77
2023-04-17T12:17:01.502Z,17.90
2023-04-17T12:19:31.695Z,20.55
2023-04-17T12:22:00.444Z,26.98
2023-04-17T12:24:28.803Z,17.33
2023-04-17T12:26:58.674Z,14.45
2023-04-17T12:29:36.732Z,15.82
2023-04-17T12:32:15.206Z,14.48
2023-04-17T12:34:43.621Z,14.20
2023-04-17T12:37:11.989Z,13.75
2023-04-17T12:39:40.540Z,14.70
2023-04-17T12:42:08.900Z,15.77
2023-04-17T12:44:37.031Z,15.68
2023-04-17T12:47:05.820Z,15.63
2023-04-17T12:49:35.478Z,15.70
2023-04-17T12:52:04.275Z,16.15
2023-04-17T12:54:32.961Z,15.38
2023-04-17T12:57:02.054Z,16.77
2023-04-17T12:59:30.191Z,16.20
2023-04-17T13:01:58.799Z,15.48
2023-04-17T13:04:27.329Z,16.35
2023-04-17T13:06:57.147Z,14.23
2023-04-17T13:09:25.576Z,14.77
2023-04-17T13:11:54.183Z,15.77
2023-04-17T13:14:22.287Z,15.13
2023-04-17T13:16:51.499Z,16.75
2023-04-17T13:19:19.928Z,17.10
2023-04-17T13:21:48.445Z,17.73
2023-04-17T13:24:18.050Z,17.42
2023-04-17T13:26:46.717Z,16.48
2023-04-17T13:29:17.072Z,15.80
2023-04-17T13:31:47.086Z,17.92
2023-04-17T13:34:15.462Z,17.85
2023-04-17T13:36:45.025Z,17.73
2023-04-17T13:39:13.863Z,17.00
2023-04-17T13:41:43.732Z,17.60
2023-04-17T13:44:12.429Z,24.08
2023-04-17T13:46:40.956Z,19.88
2023-04-17T13:49:09.271Z,22.15
2023-04-17T13:51:37.656Z,38.70
2023-04-17T13:54:06.560Z,35.55
2023-04-17T13:56:35.046Z,42.38
2023-04-17T13:59:05.755Z,36.67
2023-04-17T14:01:34.309Z,17.40
2023-04-17T14:04:02.865Z,42.50
2023-04-17T14:06:32.911Z,26.00
2023-04-17T14:09:01.896Z,30.15
2023-04-17T14:11:30.572Z,27.15
2023-04-17T14:13:58.687Z,19.50
2023-04-17T14:16:28.926Z,18.50
2023-04-17T14:19:01.320Z,20.75
2023-04-17T14:21:35.628Z,21.73
2023-04-17T14:24:03.958Z,17.98
2023-04-17T14:26:32.446Z,25.17
2023-04-17T14:29:00.952Z,23.27
2023-04-17T14:31:31.160Z,17.05
2023-04-17T14:33:59.294Z,12.10
2023-04-17T14:36:27.912Z,13.45
2023-04-17T14:38:56.086Z,14.50
2023-04-17T14:41:29.733Z,14.35
2023-04-17T14:46:26.470Z,13.93
2023-04-17T14:48:57.136Z,16.08
2023-04-17T14:51:27.245Z,17.77
2023-04-17T14:53:55.838Z,20.33
2023-04-17T14:56:24.315Z,15.38
2023-04-17T14:58:52.721Z,13.27
2023-04-17T15:01:21.117Z,12.90
2023-04-17T15:03:49.608Z,10.43
2023-04-17T15:06:20.010Z,12.70
2023-04-17T15:08:48.367Z,13.00
2023-04-17T15:11:17.108Z,13.25
2023-04-17T15:13:45.455Z,12.75
2023-04-17T15:16:14.031Z,14.13
2023-04-17T15:18:42.199Z,14.05
2023-04-17T15:21:10.926Z,13.80
2023-04-17T15:23:40.960Z,13.90
2023-04-17T15:26:09.421Z,14.73
2023-04-17T15:28:38.089Z,13.75
2023-04-17T15:31:07.030Z,15.73
2023-04-17T15:33:35.304Z,15.02
2023-04-17T15:36:04.146Z,15.18
2023-04-17T15:38:32.296Z,17.58
2023-04-17T15:41:03.510Z,23.80
2023-04-17T15:43:32.250Z,33.10
2023-04-17T15:46:02.251Z,22.10
2023-04-17T15:48:31.170Z,19.88
2023-04-17T15:50:59.852Z,10.13
2023-04-17T15:53:27.982Z,8.75
2023-04-17T15:55:56.354Z,28.50
2023-04-17T15:58:26.170Z,21.55
2023-04-17T16:00:54.560Z,9.82
2023-04-17T16:03:23.023Z,13.63
2023-04-17T16:05:53.878Z,17.08
2023-04-17T16:08:22.262Z,15.82
2023-04-17T16:10:50.676Z,13.20
2023-04-17T16:13:19.044Z,15.77
2023-04-17T16:15:49.457Z,17.95
2023-04-17T16:18:17.590Z,15.57
2023-04-17T16:20:46.557Z,14.90
2023-04-17T16:23:14.873Z,11.35
2023-04-17T16:25:43.238Z,13.00
2023-04-17T16:28:12.275Z,9.85
2023-04-17T16:30:40.632Z,13.63
2023-04-17T16:33:10.296Z,12.27
2023-04-17T16:35:39.060Z,18.08
2023-04-17T16:38:07.307Z,18.40
2023-04-17T16:40:35.673Z,16.15
2023-04-17T16:43:03.959Z,14.90
2023-04-17T16:45:32.417Z,14.02
2023-04-17T16:48:00.614Z,16.20
2023-04-17T16:50:30.641Z,23.63
2023-04-17T16:52:58.766Z,24.75
2023-04-17T16:55:27.116Z,19.38
2023-04-17T16:57:55.654Z,17.55
2023-04-17T17:00:24.376Z,16.00
2023-04-17T17:02:52.777Z,15.60
2023-04-17T17:05:21.768Z,16.38
2023-04-17T17:07:51.343Z,12.68
2023-04-17T17:10:20.118Z,13.77
2023-04-17T17:12:48.449Z,18.75
2023-04-17T17:15:16.947Z,16.40
2023-04-17T17:17:45.136Z,15.50
2023-04-17T17:20:14.334Z,15.48
2023-04-17T17:22:42.684Z,17.83
2023-04-17T17:25:12.846Z,11.65
2023-04-17T17:27:41.148Z,11.73
2023-04-17T17:30:10.446Z,14.27
2023-04-17T17:32:38.571Z,14.63
2023-04-17T17:35:07.898Z,10.60
2023-04-17T17:37:36.253Z,14.48
2023-04-17T17:40:05.222Z,12.77
2023-04-17T17:42:34.792Z,11.63
2023-04-17T17:45:03.686Z,13.02
2023-04-17T17:47:31.971Z,24.63
2023-04-17T17:50:00.517Z,16.77
2023-04-17T17:52:28.851Z,14.80
2023-04-17T17:54:57.216Z,12.77
2023-04-17T17:57:29.236Z,16.00
2023-04-17T18:00:06.562Z,12.65
2023-04-17T18:02:35.040Z,18.05
2023-04-17T18:05:03.612Z,16.92
2023-04-17T18:07:32.378Z,10.32
2023-04-17T18:10:01.950Z,12.30
2023-04-17T18:12:30.225Z,11.93
2023-04-17T18:14:58.793Z,10.25
2023-04-17T18:17:28.619Z,10.10
2023-04-17T18:19:57.292Z,10.00
2023-04-17T18:22:25.703Z,11.10
2023-04-17T18:24:54.474Z,12.38
2023-04-17T18:27:23.058Z,10.40
2023-04-17T18:29:51.668Z,12.98
2023-04-17T18:32:19.959Z,10.55
2023-04-17T18:34:50.771Z,11.32
2023-04-17T18:37:19.101Z,8.25
2023-04-17T18:39:48.282Z,10.63
2023-04-17T18:42:16.419Z,10.50
2023-04-17T18:44:45.291Z,13.13
2023-04-17T18:47:13.989Z,11.85
2023-04-17T18:49:42.585Z,11.73
2023-04-17T18:52:12.266Z,17.85
2023-04-17T18:54:41.111Z,9.40
2023-04-17T18:57:09.412Z,13.65
2023-04-17T18:59:37.998Z,13.55
2023-04-17T19:02:06.484Z,13.90
2023-04-17T19:04:35.114Z,16.83
2023-04-17T19:07:03.346Z,13.02
2023-04-17T19:09:33.356Z,13.55
2023-04-17T19:12:02.755Z,10.50
2023-04-17T19:14:32.524Z,9.07
2023-04-17T19:17:00.840Z,10.13
2023-04-17T19:19:29.480Z,10.45
2023-04-17T19:21:57.803Z,14.25
2023-04-17T19:24:26.626Z,10.10
2023-04-17T19:26:57.641Z,9.70
2023-04-17T19:29:26.299Z,11.87
2023-04-17T19:31:54.657Z,10.70
2023-04-17T19:34:23.171Z,13.55
2023-04-17T19:36:51.578Z,11.85
2023-04-17T19:39:20.458Z,10.73
2023-04-17T19:41:50.936Z,11.77
2023-04-17T19:44:21.172Z,12.38
2023-04-17T19:46:49.378Z,13.32
2023-04-17T19:49:17.753Z,12.05
2023-04-17T19:51:46.815Z,13.88
2023-04-17T19:54:15.874Z,12.05
2023-04-17T19:56:44.106Z,13.00
2023-04-17T19:59:13.596Z,12.10
2023-04-17T20:01:44.426Z,13.60
2023-04-17T20:04:13.483Z,14.18
2023-04-17T20:06:41.956Z,13.73
2023-04-17T20:09:12.602Z,15.85
2023-04-17T20:14:14.546Z,13.70
2023-04-17T20:16:46.398Z,14.95
2023-04-17T20:19:17.280Z,13.77
2023-04-17T20:21:46.800Z,15.43
2023-04-17T20:24:16.035Z,15.23
2023-04-17T20:26:45.314Z,15.50
2023-04-17T20:29:14.128Z,15.90
2023-04-17T20:31:44.230Z,16.30
2023-04-17T20:34:12.797Z,16.77
2023-04-17T20:36:40.953Z,16.17
2023-04-17T20:39:11.097Z,15.00
2023-04-17T20:41:39.628Z,17.20
2023-04-17T20:44:08.382Z,14.88
2023-04-17T20:46:37.440Z,14.88
2023-04-17T20:49:07.317Z,14.57
2023-04-17T20:51:35.426Z,14.27
2023-04-17T20:54:03.999Z,15.55
2023-04-17T20:56:32.146Z,15.63
2023-04-17T20:59:00.551Z,13.70
2023-04-17T21:01:28.876Z,16.65
2023-04-17T21:03:57.551Z,16.63
2023-04-17T21:06:27.112Z,16.30
2023-04-17T21:08:55.641Z,17.20
2023-04-17T21:11:23.861Z,18.42
2023-04-17T21:13:52.232Z,18.13
2023-04-17T21:16:20.589Z,19.08
2023-04-17T21:18:49.269Z,18.70
2023-04-17T21:21:17.383Z,20.00
2023-04-17T21:23:47.145Z,19.83
2023-04-17T21:26:15.566Z,20.95
2023-04-17T21:28:43.938Z,21.23
2023-04-17T21:31:15.004Z,19.63
2023-04-17T21:33:43.435Z,20.60
2023-04-17T21:36:11.756Z,21.33
2023-04-17T21:38:40.344Z,21.27
2023-04-17T21:41:09.939Z,22.05
2023-04-17T21:43:38.376Z,20.60
2023-04-17T21:46:10.510Z,21.98
2023-04-17T21:48:38.919Z,21.63
2023-04-17T21:51:07.142Z,22.20
2023-04-17T21:53:37.180Z,21.10
2023-04-17T21:56:06.950Z,21.35
2023-04-17T21:58:36.969Z,22.50
2023-04-17T22:01:05.153Z,22.30
2023-04-17T22:03:33.860Z,22.58
2023-04-17T22:06:01.978Z,22.67
2023-04-17T22:08:30.359Z,22.40
2023-04-17T22:10:58.452Z,20.55
2023-04-17T22:13:26.917Z,20.33
2023-04-17T22:15:58.290Z,21.15
2023-04-17T22:18:27.639Z,21.70
2023-04-17T22:20:55.796Z,20.55
2023-04-17T22:23:24.298Z,18.20
2023-04-17T22:25:52.409Z,18.00
2023-04-17T22:28:20.877Z,19.17
2023-04-17T22:30:51.954Z,19.25
2023-04-17T22:33:21.763Z,18.92
2023-04-17T22:35:50.559Z,17.83
2023-04-17T22:38:19.520Z,18.63
2023-04-17T22:40:47.807Z,19.35
2023-04-17T22:43:16.274Z,19.25
2023-04-17T22:45:44.847Z,18.23
2023-04-17T22:48:13.295Z,17.70
2023-04-17T22:50:42.924Z,16.15
2023-04-17T22:53:11.318Z,16.48
2023-04-17T22:55:39.730Z,18.27
2023-04-17T22:58:08.145Z,18.73
2023-04-17T23:00:36.688Z,18.27
2023-04-17T23:03:05.252Z,16.85
2023-04-17T23:05:33.562Z,16.15
2023-04-17T23:08:03.457Z,16.70
2023-04-17T23:10:31.592Z,16.17
2023-04-17T23:12:59.992Z,16.73
2023-04-17T23:15:28.125Z,18.25
2023-04-17T23:17:56.601Z,16.25
2023-04-17T23:20:25.770Z,17.70
2023-04-17T23:22:54.417Z,17.05
2023-04-17T23:25:23.874Z,17.10
2023-04-17T23:27:52.280Z,16.92
2023-04-17T23:30:20.515Z,16.20
2023-04-17T23:32:50.675Z,17.55
2023-04-17T23:35:19.105Z,18.85
2023-04-17T23:37:47.768Z,18.83
2023-04-17T23:40:16.094Z,19.00
2023-04-17T23:42:46.873Z,18.17
2023-04-17T23:45:15.157Z,19.05
2023-04-17T23:47:43.614Z,19.55
2023-04-17T23:50:12.301Z,19.02
2023-04-17T23:52:40.851Z,20.42
2023-04-17T23:55:09.764Z,20.60
2023-04-17T23:57:38.432Z,20.02
